Observation data for Haskell on 01/19/2019      Previous  Date  Next       Current Mesonet Observations  Soil Data  Daily Summary Page  Observations in Plain Language
KHA1 190600Z 34023G30KT 06/01 A2993 RMK A01 T00580006  RH  070%=      5-min Rain = 0
KHA1 190605Z 34023G30KT 06/01 A2993 RMK A01 T00580005  RH  070%=      5-min Rain = 0
KHA1 190610Z 33025G33KT 06/00 A2993 RMK A01 T00570004  RH  070%=      5-min Rain = 0
KHA1 190615Z 34026G32KT 06/00 A2994 RMK A01 T00560003  RH  069%=      5-min Rain = 0
KHA1 190620Z 33026G32KT 05/00 A2994 RMK A01 T00540001  RH  069%=      5-min Rain = 0
KHA1 190625Z 34026G31KT 05/M00 A2995 RMK A01 T00531001  RH  069%=      5-min Rain = 0
KHA1 190630Z 34028G33KT 05/M00 A2995 RMK A01 T00521003  RH  068%=      5-min Rain = 0
KHA1 190635Z 34024G31KT 05/M00 A2995 RMK A01 T00511004  RH  068%=      5-min Rain = 0
KHA1 190640Z 33023G29KT 05/M00 A2995 RMK A01 T00511004  RH  068%=      5-min Rain = 0
KHA1 190645Z 33026G33KT 05/M01 A2996 RMK A01 T00501006  RH  068%=      5-min Rain = 0
KHA1 190650Z 34030G37KT 05/M01 A2996 RMK A01 T00471010  RH  067%=      5-min Rain = 0
KHA1 190655Z 34027G35KT 05/M01 A2996 RMK A01 T00461010  RH  067%=      5-min Rain = 0
KHA1 190700Z 34026G34KT 05/M01 A2997 RMK A01 T00461010  RH  068%=      5-min Rain = 0
KHA1 190705Z 34026G34KT 05/M01 A2997 RMK A01 T00461011  RH  068%=      5-min Rain = 0
KHA1 190710Z 34026G35KT 04/M01 A2997 RMK A01 T00441012  RH  068%=      5-min Rain = 0
KHA1 190715Z 34028G37KT 04/M01 A2997 RMK A01 T00431014  RH  067%=      5-min Rain = 0
KHA1 190720Z 34025G33KT 04/M01 A2998 RMK A01 T00411012  RH  069%=      5-min Rain = 0
KHA1 190725Z 34024G33KT 04/M01 A2998 RMK A01 T00401011  RH  070%=      5-min Rain = 0
KHA1 190730Z 33027G33KT 04/M01 A2998 RMK A01 T00401012  RH  070%=      5-min Rain = 0
KHA1 190735Z 33028G34KT 04/M01 A2999 RMK A01 T00391012  RH  070%=      5-min Rain = 0
KHA1 190740Z 33024G32KT 04/M01 A2999 RMK A01 T00381009  RH  072%=      5-min Rain = 0
KHA1 190745Z 33025G33KT 04/M01 A2999 RMK A01 T00381010  RH  072%=      5-min Rain = 0
KHA1 190750Z 33026G33KT 04/M01 A2999 RMK A01 T00371011  RH  072%=      5-min Rain = 0
KHA1 190755Z 33027G33KT 04/M01 A30 RMK A01 T00351012  RH  072%=      5-min Rain = 0
KHA1 190800Z 33025G35KT 04/M01 A30 RMK A01 T00351012  RH  072%=      5-min Rain = 0
KHA1 190805Z 34029G36KT 03/M01 A3001 RMK A01 T00321014  RH  073%=      5-min Rain = 0
KHA1 190810Z 34025G32KT 03/M01 A3001 RMK A01 T00321012  RH  073%=      5-min Rain = 0
KHA1 190815Z 33028G35KT 03/M01 A3001 RMK A01 T00301012  RH  074%=      5-min Rain = 0
KHA1 190820Z 33027G34KT 03/M01 A3002 RMK A01 T00281012  RH  076%=      5-min Rain = 0
KHA1 190825Z 33027G35KT 02/M01 A3002 RMK A01 T00221009  RH  081%=      5-min Rain = 0
KHA1 190830Z 33025G33KT 01/M01 A3003 RMK A01 T00111007  RH  089%=      5-min Rain = 0
KHA1 190835Z 33027G34KT 01/M01 A3004 RMK A01 T00071006  RH  092%=      5-min Rain = 0
KHA1 190840Z 34026G36KT 01/M01 A3004 RMK A01 T00061006  RH  093%=      5-min Rain = 0
KHA1 190845Z 34024G32KT 00/M01 A3004 RMK A01 T00041006  RH  094%=      5-min Rain = 0
KHA1 190850Z 34022G29KT 00/M01 A3004 RMK A01 T00031006  RH  095%=      5-min Rain = 0
KHA1 190855Z 33019KT 00/M01 A3005 RMK A01 T00031005  RH  096%=      5-min Rain = 0
KHA1 190900Z 33019G25KT 00/M00 A3005 RMK A01 T00031004  RH  096%=      5-min Rain = 0
KHA1 190905Z 33020G27KT 00/M01 A3005 RMK A01 T00031005  RH  096%=      5-min Rain = 0
KHA1 190910Z 33020G25KT 00/M00 A3005 RMK A01 T00041004  RH  095%=      5-min Rain = 0
KHA1 190915Z 33018G23KT 01/M00 A3005 RMK A01 T00051004  RH  094%=      5-min Rain = 0
KHA1 190920Z 33018G24KT 01/M00 A3005 RMK A01 T00071004  RH  093%=      5-min Rain = 0
KHA1 190925Z 33019KT 01/M01 A3006 RMK A01 T00081005  RH  092%=      5-min Rain = 0
KHA1 190930Z 33019G25KT 01/M01 A3006 RMK A01 T00101005  RH  091%=      5-min Rain = 0
KHA1 190935Z 33018G23KT 01/M01 A3006 RMK A01 T00101005  RH  090%=      5-min Rain = 0
KHA1 190940Z 33017G22KT 01/M01 A3007 RMK A01 T00111007  RH  089%=      5-min Rain = 0
KHA1 190945Z 33016KT 01/M01 A3007 RMK A01 T00111007  RH  089%=      5-min Rain = 0
KHA1 190950Z 33016G21KT 01/M01 A3007 RMK A01 T00121007  RH  088%=      5-min Rain = 0
KHA1 190955Z 33018KT 01/M01 A3007 RMK A01 T00131008  RH  087%=      5-min Rain = 0
KHA1 191000Z 33014KT 01/M01 A3008 RMK A01 T00141007  RH  087%=      5-min Rain = 0
KHA1 191005Z 32015KT 02/M01 A3008 RMK A01 T00151006  RH  087%=      5-min Rain = 0
KHA1 191010Z 32015KT 02/M01 A3008 RMK A01 T00161006  RH  087%=      5-min Rain = 0
KHA1 191015Z 32014KT 02/M01 A3009 RMK A01 T00161005  RH  087%=      5-min Rain = 0
KHA1 191020Z 32014KT 02/M01 A3009 RMK A01 T00171005  RH  087%=      5-min Rain = 0
KHA1 191025Z 32014KT 02/M00 A3009 RMK A01 T00181004  RH  086%=      5-min Rain = 0
KHA1 191030Z 32013KT 02/M00 A3009 RMK A01 T00181004  RH  086%=      5-min Rain = 0
KHA1 191035Z 32013KT 02/M00 A3009 RMK A01 T00181003  RH  086%=      5-min Rain = 0
KHA1 191040Z 32012KT 02/M00 A301 RMK A01 T00191003  RH  086%=      5-min Rain = 0
KHA1 191045Z 32012G17KT 02/M00 A301 RMK A01 T00201003  RH  086%=      5-min Rain = 0
KHA1 191050Z 32013G18KT 02/M00 A301 RMK A01 T00211004  RH  085%=      5-min Rain = 0
KHA1 191055Z 32014G19KT 02/M01 A301 RMK A01 T00221005  RH  083%=      5-min Rain = 0
KHA1 191100Z 32014KT 02/M01 A301 RMK A01 T00221005  RH  083%=      5-min Rain = 0
KHA1 191105Z 32015KT 02/M01 A301 RMK A01 T00231005  RH  083%=      5-min Rain = 0
KHA1 191110Z 32015KT 02/M01 A3011 RMK A01 T00231005  RH  083%=      5-min Rain = 0
KHA1 191115Z 33016KT 02/M00 A3011 RMK A01 T00231004  RH  083%=      5-min Rain = 0
KHA1 191120Z 33019G25KT 02/M01 A3011 RMK A01 T00241007  RH  081%=      5-min Rain = 0
KHA1 191125Z 33020G28KT 02/M01 A3011 RMK A01 T00241010  RH  079%=      5-min Rain = 0
KHA1 191130Z 33022KT 02/M01 A3011 RMK A01 T00231014  RH  077%=      5-min Rain = 0
KHA1 191135Z 33022G29KT 02/M02 A3012 RMK A01 T00221017  RH  076%=      5-min Rain = 0
KHA1 191140Z 33022G28KT 02/M02 A3012 RMK A01 T00221020  RH  074%=      5-min Rain = 0
KHA1 191145Z 33020G26KT 02/M02 A3012 RMK A01 T00211020  RH  075%=      5-min Rain = 0
KHA1 191150Z 33022G29KT 02/M02 A3013 RMK A01 T00201022  RH  075%=      5-min Rain = 0
KHA1 191155Z 33022G28KT 02/M02 A3013 RMK A01 T00181023  RH  075%=      5-min Rain = 0
KHA1 191200Z 33023G31KT 02/M03 A3014 RMK A01 T00171027  RH  073%=      5-min Rain = 0
KHA1 191205Z 33024KT 02/M03 A3015 RMK A01 T00151029  RH  073%=      5-min Rain = 0
KHA1 191210Z 33021G27KT 01/M03 A3015 RMK A01 T00131031  RH  073%=      5-min Rain = 0
KHA1 191215Z 33023G32KT 01/M03 A3016 RMK A01 T00121034  RH  072%=      5-min Rain = 0
KHA1 191220Z 33020G32KT 01/M04 A3017 RMK A01 T00101035  RH  072%=      5-min Rain = 0
KHA1 191225Z 33021G27KT 01/M04 A3017 RMK A01 T00091035  RH  073%=      5-min Rain = 0
KHA1 191230Z 33021G26KT 01/M04 A3017 RMK A01 T00071036  RH  073%=      5-min Rain = 0
KHA1 191235Z 33020G26KT 01/M04 A3018 RMK A01 T00061037  RH  074%=      5-min Rain = 0
KHA1 191240Z 33019G27KT 01/M04 A3018 RMK A01 T00051038  RH  074%=      5-min Rain = 0
KHA1 191245Z 33017G22KT 00/M04 A3019 RMK A01 T00031037  RH  075%=      5-min Rain = 0
KHA1 191250Z 33016G21KT 00/M04 A3019 RMK A01 T00021036  RH  076%=      5-min Rain = 0
KHA1 191255Z 33016KT 00/M04 A302 RMK A01 T00011037  RH  076%=      5-min Rain = 0
KHA1 191300Z 33017KT 00/M04 A302 RMK A01 T00011037  RH  076%=      5-min Rain = 0
KHA1 191305Z 34016G21KT 00/04 A302 RMK A01 T00000-37  RH  076%=      5-min Rain = 0
KHA1 191310Z 34015G20KT 00/04 A302 RMK A01 T00-00-38  RH  077%=      5-min Rain = 0
KHA1 191315Z 34020KT 00/M04 A302 RMK A01 T00011041  RH  074%=      5-min Rain = 0
KHA1 191320Z 34016G22KT 00/M04 A302 RMK A01 T00011041  RH  074%=      5-min Rain = 0
KHA1 191325Z 34016KT 00/04 A302 RMK A01 T00-00-40  RH  075%=      5-min Rain = 0
KHA1 191330Z 34016KT 00/04 A302 RMK A01 T00-00-40  RH  075%=      5-min Rain = 0
KHA1 191335Z 34014G20KT M00/M04 A302 RMK A01 T10011039  RH  076%=      5-min Rain = 0
KHA1 191340Z 33014KT M00/M04 A302 RMK A01 T10021039  RH  077%=      5-min Rain = 0
KHA1 191345Z 33014KT M00/M04 A3021 RMK A01 T10031039  RH  077%=      5-min Rain = 0
KHA1 191350Z 33013KT M00/M04 A3021 RMK A01 T10031039  RH  077%=      5-min Rain = 0
KHA1 191355Z 33011KT M00/M04 A3021 RMK A01 T10041038  RH  078%=      5-min Rain = 0
KHA1 191400Z 33012KT M00/M04 A3021 RMK A01 T10031038  RH  078%=      5-min Rain = 0
KHA1 191405Z 32014KT M00/M04 A3021 RMK A01 T10021038  RH  077%=      5-min Rain = 0
KHA1 191410Z 33016G21KT M00/M04 A3021 RMK A01 T10011039  RH  076%=      5-min Rain = 0
KHA1 191415Z 33015KT 00/04 A3021 RMK A01 T00-00-39  RH  076%=      5-min Rain = 0
KHA1 191420Z 33017KT 00/04 A3022 RMK A01 T00000-39  RH  075%=      5-min Rain = 0
KHA1 191425Z 33017G22KT 00/M04 A3022 RMK A01 T00011039  RH  074%=      5-min Rain = 0
KHA1 191430Z 33017KT 00/M04 A3023 RMK A01 T00021039  RH  075%=      5-min Rain = 0
KHA1 191435Z 33016G21KT 00/M04 A3023 RMK A01 T00021039  RH  074%=      5-min Rain = 0
KHA1 191440Z 33016G22KT 00/M04 A3024 RMK A01 T00031038  RH  074%=      5-min Rain = 0
KHA1 191445Z 33018G26KT 00/M04 A3024 RMK A01 T00041039  RH  073%=      5-min Rain = 0
KHA1 191450Z 33021G26KT 01/M04 A3024 RMK A01 T00051042  RH  071%=      5-min Rain = 0
KHA1 191455Z 33020G25KT 01/M04 A3024 RMK A01 T00071042  RH  070%=      5-min Rain = 0
KHA1 191500Z 33021G26KT 01/M04 A3024 RMK A01 T00081043  RH  069%=      5-min Rain = 0
KHA1 191505Z 33024G31KT 01/M05 A3025 RMK A01 T00071046  RH  068%=      5-min Rain = 0
KHA1 191510Z 34024G29KT 01/M05 A3025 RMK A01 T00081047  RH  067%=      5-min Rain = 0
KHA1 191515Z 34022G29KT 01/M05 A3026 RMK A01 T00091046  RH  067%=      5-min Rain = 0
KHA1 191520Z 33022G30KT 01/M05 A3026 RMK A01 T00091046  RH  067%=      5-min Rain = 0
KHA1 191525Z 34024G29KT 01/M05 A3026 RMK A01 T00101046  RH  066%=      5-min Rain = 0
KHA1 191530Z 33025G30KT 01/M05 A3026 RMK A01 T00101048  RH  065%=      5-min Rain = 0
KHA1 191535Z 33023G28KT 01/M05 A3027 RMK A01 T00121046  RH  066%=      5-min Rain = 0
KHA1 191540Z 34022G27KT 01/M05 A3027 RMK A01 T00131047  RH  065%=      5-min Rain = 0
KHA1 191545Z 33022G28KT 01/M05 A3028 RMK A01 T00141045  RH  065%=      5-min Rain = 0
KHA1 191550Z 33023G30KT 02/M05 A3028 RMK A01 T00151046  RH  064%=      5-min Rain = 0
KHA1 191555Z 33022G28KT 02/M04 A3028 RMK A01 T00181044  RH  064%=      5-min Rain = 0
KHA1 191600Z 34023G29KT 02/M05 A3028 RMK A01 T00181046  RH  063%=      5-min Rain = 0
KHA1 191605Z 34022G28KT 02/M04 A3029 RMK A01 T00201043  RH  063%=      5-min Rain = 0
KHA1 191610Z 34023G29KT 02/M05 A3029 RMK A01 T00211045  RH  062%=      5-min Rain = 0
KHA1 191615Z 33025G31KT 02/M05 A3029 RMK A01 T00211046  RH  061%=      5-min Rain = 0
KHA1 191620Z 33023G29KT 02/M05 A3029 RMK A01 T00221046  RH  061%=      5-min Rain = 0
KHA1 191625Z 34024G32KT 02/M05 A303 RMK A01 T00241047  RH  060%=      5-min Rain = 0
KHA1 191630Z 33025G32KT 02/M05 A303 RMK A01 T00231051  RH  058%=      5-min Rain = 0
KHA1 191635Z 33022G28KT 03/M05 A303 RMK A01 T00271047  RH  058%=      5-min Rain = 0
KHA1 191640Z 33024G31KT 03/M05 A3031 RMK A01 T00281048  RH  058%=      5-min Rain = 0
KHA1 191645Z 34022G28KT 03/M05 A3031 RMK A01 T00271049  RH  057%=      5-min Rain = 0
KHA1 191650Z 34023KT 03/M05 A3031 RMK A01 T00311046  RH  057%=      5-min Rain = 0
KHA1 191655Z 34021G27KT 03/M04 A3031 RMK A01 T00331044  RH  057%=      5-min Rain = 0
KHA1 191700Z 33023G30KT 03/M05 A3031 RMK A01 T00331045  RH  057%=      5-min Rain = 0
KHA1 191705Z 33023G28KT 03/M05 A3031 RMK A01 T00341047  RH  056%=      5-min Rain = 0
KHA1 191710Z 34022G27KT 04/M05 A3031 RMK A01 T00351047  RH  055%=      5-min Rain = 0
KHA1 191715Z 33021G28KT 04/M05 A3031 RMK A01 T00371047  RH  055%=      5-min Rain = 0
KHA1 191720Z 33024G29KT 04/M05 A303 RMK A01 T00381049  RH  053%=      5-min Rain = 0
KHA1 191725Z 33024G29KT 04/M05 A303 RMK A01 T00381050  RH  053%=      5-min Rain = 0
KHA1 191730Z 33025G33KT 04/M05 A303 RMK A01 T00381051  RH  052%=      5-min Rain = 0
KHA1 191735Z 33023KT 04/M05 A303 RMK A01 T00401049  RH  052%=      5-min Rain = 0
KHA1 191740Z 33022G30KT 04/M05 A303 RMK A01 T00431047  RH  052%=      5-min Rain = 0
KHA1 191745Z 33025G31KT 04/M05 A303 RMK A01 T00411052  RH  051%=      5-min Rain = 0
KHA1 191750Z 33025G31KT 04/M05 A303 RMK A01 T00421053  RH  050%=      5-min Rain = 0
KHA1 191755Z 33023G29KT 04/M05 A303 RMK A01 T00421054  RH  050%=      5-min Rain = 0
KHA1 191800Z 34021G27KT 04/M05 A303 RMK A01 T00441052  RH  050%=      5-min Rain = 0
KHA1 191805Z 34020KT 04/M05 A303 RMK A01 T00441051  RH  050%=      5-min Rain = 0
KHA1 191810Z 34023G30KT 05/M05 A303 RMK A01 T00451053  RH  049%=      5-min Rain = 0
KHA1 191815Z 34024G30KT 05/M05 A303 RMK A01 T00461052  RH  049%=      5-min Rain = 0
KHA1 191820Z 33022G28KT 05/M05 A303 RMK A01 T00501050  RH  049%=      5-min Rain = 0
KHA1 191825Z 34022G30KT 05/M05 A3029 RMK A01 T00491051  RH  048%=      5-min Rain = 0
KHA1 191830Z 34023G28KT 05/M05 A3029 RMK A01 T00521051  RH  048%=      5-min Rain = 0
KHA1 191835Z 34022G28KT 05/M05 A3029 RMK A01 T00531052  RH  047%=      5-min Rain = 0
KHA1 191840Z 34025G32KT 05/M05 A3029 RMK A01 T00531053  RH  047%=      5-min Rain = 0
KHA1 191845Z 34024G30KT 05/M05 A3028 RMK A01 T00531054  RH  046%=      5-min Rain = 0
KHA1 191850Z 34023G30KT 06/M05 A3028 RMK A01 T00551051  RH  046%=      5-min Rain = 0
KHA1 191855Z 34024G30KT 05/M06 A3028 RMK A01 T00541056  RH  045%=      5-min Rain = 0
KHA1 191900Z 34024G30KT 06/M05 A3027 RMK A01 T00551053  RH  046%=      5-min Rain = 0
KHA1 191905Z 34023G30KT 06/M05 A3026 RMK A01 T00571051  RH  046%=      5-min Rain = 0
KHA1 191910Z 34022G28KT 06/M05 A3026 RMK A01 T00591049  RH  046%=      5-min Rain = 0
KHA1 191915Z 33023G28KT 06/M05 A3025 RMK A01 T00591051  RH  045%=      5-min Rain = 0
KHA1 191920Z 34024G32KT 06/M05 A3026 RMK A01 T00591052  RH  045%=      5-min Rain = 0
KHA1 191925Z 34023G29KT 06/M05 A3026 RMK A01 T00611050  RH  045%=      5-min Rain = 0
KHA1 191930Z 34022G31KT 06/M05 A3026 RMK A01 T00631049  RH  045%=      5-min Rain = 0
KHA1 191935Z 34022G29KT 06/M05 A3026 RMK A01 T00641051  RH  044%=      5-min Rain = 0
KHA1 191940Z 34020G27KT 07/M05 A3026 RMK A01 T00651049  RH  044%=      5-min Rain = 0
KHA1 191945Z 33023G30KT 07/M05 A3026 RMK A01 T00671050  RH  043%=      5-min Rain = 0
KHA1 191950Z 34024G31KT 07/M05 A3026 RMK A01 T00671052  RH  043%=      5-min Rain = 0
KHA1 191955Z 34022G29KT 07/M05 A3026 RMK A01 T00691048  RH  043%=      5-min Rain = 0
KHA1 192000Z 34022G28KT 07/M05 A3025 RMK A01 T00681050  RH  043%=      5-min Rain = 0
KHA1 192005Z 34020G26KT 07/M05 A3025 RMK A01 T00701047  RH  043%=      5-min Rain = 0
KHA1 192010Z 35022G27KT 07/M05 A3025 RMK A01 T00721049  RH  042%=      5-min Rain = 0
KHA1 192015Z 35020G25KT 07/M05 A3025 RMK A01 T00721047  RH  043%=      5-min Rain = 0
KHA1 192020Z 34016KT 08/M04 A3025 RMK A01 T00751044  RH  043%=      5-min Rain = 0
KHA1 192025Z 33019G25KT 08/M04 A3025 RMK A01 T00771043  RH  042%=      5-min Rain = 0
KHA1 192030Z 34018KT 07/M05 A3025 RMK A01 T00731047  RH  042%=      5-min Rain = 0
KHA1 192035Z 33019G25KT 08/M04 A3025 RMK A01 T00751044  RH  043%=      5-min Rain = 0
KHA1 192040Z 34016KT 08/M04 A3025 RMK A01 T00761044  RH  043%=      5-min Rain = 0
KHA1 192045Z 34017G23KT 07/M05 A3025 RMK A01 T00741045  RH  043%=      5-min Rain = 0
KHA1 192050Z 34017G22KT 08/M04 A3025 RMK A01 T00781040  RH  043%=      5-min Rain = 0
KHA1 192055Z 34018KT 08/M04 A3025 RMK A01 T00761043  RH  043%=      5-min Rain = 0
KHA1 192100Z 34019G25KT 08/M04 A3025 RMK A01 T00781042  RH  042%=      5-min Rain = 0
KHA1 192105Z 35016G23KT 08/M04 A3025 RMK A01 T00751043  RH  043%=      5-min Rain = 0
KHA1 192110Z 34019G24KT 08/M04 A3025 RMK A01 T00771042  RH  043%=      5-min Rain = 0
KHA1 192115Z 33017G22KT 08/M04 A3025 RMK A01 T00781041  RH  043%=      5-min Rain = 0
KHA1 192120Z 33019G24KT 08/M04 A3025 RMK A01 T00801038  RH  043%=      5-min Rain = 0
KHA1 192125Z 35015KT 08/M04 A3025 RMK A01 T00801039  RH  043%=      5-min Rain = 0
KHA1 192130Z 33017KT 08/M04 A3025 RMK A01 T00811036  RH  044%=      5-min Rain = 0
KHA1 192135Z 33019G24KT 08/M04 A3025 RMK A01 T00811039  RH  043%=      5-min Rain = 0
KHA1 192140Z 34017KT 08/M04 A3026 RMK A01 T00821039  RH  043%=      5-min Rain = 0
KHA1 192145Z 34018G26KT 08/M04 A3025 RMK A01 T00811038  RH  043%=      5-min Rain = 0
KHA1 192150Z 34018G25KT 08/M04 A3025 RMK A01 T00801040  RH  043%=      5-min Rain = 0
KHA1 192155Z 34020G25KT 08/M04 A3025 RMK A01 T00801041  RH  042%=      5-min Rain = 0
KHA1 192200Z 35015G22KT 08/M04 A3026 RMK A01 T00791041  RH  043%=      5-min Rain = 0
KHA1 192205Z 35017G22KT 08/M04 A3026 RMK A01 T00801040  RH  043%=      5-min Rain = 0
KHA1 192210Z 35015G20KT 08/M04 A3026 RMK A01 T00801039  RH  043%=      5-min Rain = 0
KHA1 192215Z 35015G20KT 08/M04 A3026 RMK A01 T00801040  RH  043%=      5-min Rain = 0
KHA1 192220Z 35017G22KT 08/M04 A3027 RMK A01 T00811040  RH  043%=      5-min Rain = 0
KHA1 192225Z 35015G21KT 08/M04 A3027 RMK A01 T00801040  RH  042%=      5-min Rain = 0
KHA1 192230Z 35015KT 08/M04 A3027 RMK A01 T00791041  RH  043%=      5-min Rain = 0
KHA1 192235Z 36013KT 08/M04 A3027 RMK A01 T00761043  RH  043%=      5-min Rain = 0
KHA1 192240Z 35014KT 08/M04 A3027 RMK A01 T00771041  RH  043%=      5-min Rain = 0
KHA1 192245Z 35011KT 08/M04 A3027 RMK A01 T00781039  RH  044%=      5-min Rain = 0
KHA1 192250Z 36013KT 08/M04 A3027 RMK A01 T00771042  RH  043%=      5-min Rain = 0
KHA1 192255Z 35014KT 08/M04 A3027 RMK A01 T00751044  RH  043%=      5-min Rain = 0
KHA1 192300Z 36012KT 07/M05 A3027 RMK A01 T00741045  RH  043%=      5-min Rain = 0
KHA1 192305Z 00012G17KT 07/M04 A3027 RMK A01 T00741044  RH  043%=      5-min Rain = 0
KHA1 192310Z 36012KT 07/M04 A3027 RMK A01 T00731044  RH  043%=      5-min Rain = 0
KHA1 192315Z 00012KT 07/M05 A3027 RMK A01 T00721045  RH  044%=      5-min Rain = 0
KHA1 192320Z 36013KT 07/M05 A3027 RMK A01 T00711045  RH  044%=      5-min Rain = 0
KHA1 192325Z 00011KT 07/M05 A3027 RMK A01 T00691045  RH  044%=      5-min Rain = 0
KHA1 192330Z 36012KT 07/M05 A3027 RMK A01 T00671045  RH  045%=      5-min Rain = 0
KHA1 192335Z 00012KT 07/M05 A3027 RMK A01 T00651046  RH  045%=      5-min Rain = 0
KHA1 192340Z 01011KT 06/M05 A3027 RMK A01 T00621045  RH  046%=      5-min Rain = 0
KHA1 192345Z 00011KT 06/M05 A3028 RMK A01 T00601050  RH  045%=      5-min Rain = 0
KHA1 192350Z 01011KT 06/M05 A3028 RMK A01 T00581050  RH  046%=      5-min Rain = 0
KHA1 192355Z 01010KT 06/M05 A3028 RMK A01 T00551049  RH  047%=      5-min Rain = 0
KHA1 200000Z 01009KT 05/M05 A3028 RMK A01 T00521047  RH  049%=      5-min Rain = 0
KHA1 200005Z 01009KT 05/M05 A3028 RMK A01 T00501048  RH  049%=      5-min Rain = 0
KHA1 200010Z 01009KT 05/M05 A3028 RMK A01 T00481048  RH  050%=      5-min Rain = 0
KHA1 200015Z 01009KT 05/M05 A3028 RMK A01 T00461048  RH  051%=      5-min Rain = 0
KHA1 200020Z 00009KT 04/M05 A3028 RMK A01 T00441048  RH  051%=      5-min Rain = 0
KHA1 200025Z 01009KT 04/M05 A3029 RMK A01 T00441049  RH  051%=      5-min Rain = 0
KHA1 200030Z 01007KT 04/M05 A3029 RMK A01 T00411046  RH  053%=      5-min Rain = 0
KHA1 200035Z 01007KT 04/M04 A3029 RMK A01 T00381044  RH  055%=      5-min Rain = 0
KHA1 200040Z 02008KT 04/M05 A3029 RMK A01 T00371045  RH  055%=      5-min Rain = 0
KHA1 200045Z 02007KT 04/M05 A3029 RMK A01 T00351045  RH  056%=      5-min Rain = 0
KHA1 200050Z 04006KT 03/M04 A3029 RMK A01 T00321042  RH  058%=      5-min Rain = 0
KHA1 200055Z 03006KT 03/M04 A3029 RMK A01 T00301043  RH  059%=      5-min Rain = 0
KHA1 200100Z 03006KT 03/M05 A303 RMK A01 T00301045  RH  058%=      5-min Rain = 0
KHA1 200105Z 02005KT 03/M05 A303 RMK A01 T00291045  RH  058%=      5-min Rain = 0
KHA1 200110Z 02006KT 03/M05 A303 RMK A01 T00271047  RH  058%=      5-min Rain = 0
KHA1 200115Z 01006KT 03/M05 A303 RMK A01 T00271049  RH  057%=      5-min Rain = 0
KHA1 200120Z 02007KT 03/M05 A303 RMK A01 T00271050  RH  057%=      5-min Rain = 0
KHA1 200125Z 02008KT 03/M05 A303 RMK A01 T00261050  RH  058%=      5-min Rain = 0
KHA1 200130Z 02007KT 03/M05 A303 RMK A01 T00251051  RH  058%=      5-min Rain = 0
KHA1 200135Z 02008KT 03/M05 A303 RMK A01 T00251052  RH  057%=      5-min Rain = 0
KHA1 200140Z 02008KT 02/M05 A303 RMK A01 T00241052  RH  057%=      5-min Rain = 0
KHA1 200145Z 02006KT 02/M05 A3031 RMK A01 T00231053  RH  057%=      5-min Rain = 0
KHA1 200150Z 02007KT 02/M05 A3031 RMK A01 T00221054  RH  057%=      5-min Rain = 0
KHA1 200155Z 01008KT 02/M06 A3031 RMK A01 T00221056  RH  056%=      5-min Rain = 0
KHA1 200200Z 01008KT 02/M06 A3032 RMK A01 T00221057  RH  056%=      5-min Rain = 0
KHA1 200205Z 01008KT 02/M06 A3032 RMK A01 T00211056  RH  057%=      5-min Rain = 0
KHA1 200210Z 02008KT 02/M06 A3032 RMK A01 T00201056  RH  057%=      5-min Rain = 0
KHA1 200215Z 02008KT 02/M06 A3032 RMK A01 T00201057  RH  057%=      5-min Rain = 0
KHA1 200220Z 02007KT 02/M06 A3032 RMK A01 T00181056  RH  058%=      5-min Rain = 0
KHA1 200225Z 01006KT 02/M06 A3032 RMK A01 T00161056  RH  059%=      5-min Rain = 0
KHA1 200230Z 01005KT 01/M06 A3031 RMK A01 T00141057  RH  059%=      5-min Rain = 0
KHA1 200235Z 01006KT 01/M06 A3031 RMK A01 T00111056  RH  061%=      5-min Rain = 0
KHA1 200240Z 02007KT 01/M05 A3031 RMK A01 T00071054  RH  063%=      5-min Rain = 0
KHA1 200245Z 02006KT 01/M05 A3031 RMK A01 T00061054  RH  064%=      5-min Rain = 0
KHA1 200250Z 03005KT 01/M05 A3031 RMK A01 T00051053  RH  065%=      5-min Rain = 0
KHA1 200255Z 04003KT 00/M05 A3031 RMK A01 T00041053  RH  066%=      5-min Rain = 0
KHA1 200300Z 05003KT 00/M05 A3031 RMK A01 T00031053  RH  066%=      5-min Rain = 0
KHA1 200305Z 04004KT 00/M05 A303 RMK A01 T00031051  RH  067%=      5-min Rain = 0
KHA1 200310Z 04004KT M00/M05 A303 RMK A01 T10021050  RH  070%=      5-min Rain = 0
KHA1 200315Z 04005KT M01/M05 A3031 RMK A01 T10061050  RH  073%=      5-min Rain = 0
KHA1 200320Z 04004KT M01/M05 A3031 RMK A01 T10081050  RH  074%=      5-min Rain = 0
KHA1 200325Z 05002KT M01/M05 A3032 RMK A01 T10081049  RH  074%=      5-min Rain = 0
KHA1 200330Z 04001KT M01/M05 A3032 RMK A01 T10081050  RH  074%=      5-min Rain = 0
KHA1 200335Z 01001KT M01/M05 A3033 RMK A01 T10051050  RH  072%=      5-min Rain = 0
KHA1 200340Z 02003KT M00/M05 A3032 RMK A01 T10031053  RH  069%=      5-min Rain = 0
KHA1 200345Z 02004KT M01/M05 A3033 RMK A01 T10081053  RH  072%=      5-min Rain = 0
KHA1 200350Z 00003KT M01/M05 A3033 RMK A01 T10121053  RH  074%=      5-min Rain = 0
KHA1 200355Z 01001KT M01/M05 A3033 RMK A01 T10131051  RH  076%=      5-min Rain = 0
KHA1 200400Z 06003KT M01/M05 A3033 RMK A01 T10081054  RH  071%=      5-min Rain = 0
KHA1 200405Z 06006KT M01/M05 A3033 RMK A01 T10051051  RH  071%=      5-min Rain = 0
KHA1 200410Z 06004KT M00/M06 A3033 RMK A01 T10021056  RH  067%=      5-min Rain = 0
KHA1 200415Z 05004KT M00/M06 A3034 RMK A01 T10041057  RH  067%=      5-min Rain = 0
KHA1 200420Z 05007KT M01/M06 A3034 RMK A01 T10051057  RH  068%=      5-min Rain = 0
KHA1 200425Z 04004KT M00/M06 A3034 RMK A01 T10041056  RH  068%=      5-min Rain = 0
KHA1 200430Z 05003KT M00/M06 A3034 RMK A01 T10041055  RH  069%=      5-min Rain = 0
KHA1 200435Z 07002KT M01/M06 A3034 RMK A01 T10051059  RH  067%=      5-min Rain = 0
KHA1 200440Z 07006KT M01/M06 A3034 RMK A01 T10051057  RH  068%=      5-min Rain = 0
KHA1 200445Z 07005KT M00/M06 A3034 RMK A01 T10041057  RH  067%=      5-min Rain = 0
KHA1 200450Z 06006KT M00/M06 A3034 RMK A01 T10031059  RH  066%=      5-min Rain = 0
KHA1 200455Z 06005KT M01/M06 A3034 RMK A01 T10051060  RH  066%=      5-min Rain = 0
KHA1 200500Z 07006KT M01/M06 A3034 RMK A01 T10061061  RH  066%=      5-min Rain = 0
KHA1 200505Z 07006KT M01/M06 A3034 RMK A01 T10081060  RH  068%=      5-min Rain = 0
KHA1 200510Z 07006KT M01/M06 A3034 RMK A01 T10081061  RH  067%=      5-min Rain = 0
KHA1 200515Z 06004KT M01/M06 A3034 RMK A01 T10071062  RH  067%=      5-min Rain = 0
KHA1 200520Z 07004KT M01/M06 A3034 RMK A01 T10081061  RH  067%=      5-min Rain = 0
KHA1 200525Z 08003KT M01/M06 A3034 RMK A01 T10091060  RH  068%=      5-min Rain = 0
KHA1 200530Z 11003KT M01/M06 A3034 RMK A01 T10081059  RH  068%=      5-min Rain = 0
KHA1 200535Z 12004KT M01/M06 A3034 RMK A01 T10081062  RH  067%=      5-min Rain = 0
KHA1 200540Z 10004KT M01/M06 A3034 RMK A01 T10081061  RH  068%=      5-min Rain = 0
KHA1 200545Z 08004KT M01/M06 A3034 RMK A01 T10091059  RH  069%=      5-min Rain = 0
KHA1 200550Z 09004KT M01/M06 A3034 RMK A01 T10091060  RH  069%=      5-min Rain = 0
KHA1 200555Z 09004KT M01/M06 A3034 RMK A01 T10101059  RH  070%=      5-min Rain = 0

Page generated in 0.0092 seconds.